PWSweather.com
Personal Weather Stations
Station Observations
COONRAPIDS
Minneapolis, MN 55433

Minneapolis, MN 55433

Lat: 45.187721, Lon: -93.36828

Elevation: 898

Station Type: Davis Vantage Pro 2

High Low Average
Temperature 19.8°F-6.8°C -7.5°F-21.9°C 5.7°F-14.6°C
Dew Point 14.0°F-10.0°C -17.1°F-27.3°C -3.5°F-19.7°C
Winds 9.2 mph 14.8 kmh Calm Calm 4.0 mph NW6.4 kmh NW
Wind Gusts 19.6 mph31.5 kmh -- 8.0 mph12.9 kmh
Humidity 82% 50% 66%
Pressure 30.28 in1025.4 mb 29.83 in1010.2 mb -
Precipitation 0.00 in0.0 mm - -
Hour Temp Dew Point Humidity Winds Wind Gusts Pressure Precip Precip Rate Daily Precip Total
12:00 AM 19.8°F-6.8°C 13.5°F-10.3°C 76% Calm Calm -- 29.82 in1009.8 mb - 0.00 in0.0 mm 0.00 in0.0 mm
12:10 AM 19.8°F-6.8°C 13.8°F-10.1°C 77% Calm Calm -- 29.82 in1009.8 mb - 0.00 in0.0 mm 0.00 in0.0 mm
12:20 AM 19.8°F-6.8°C 13.8°F-10.1°C 77% Calm Calm -- 29.82 in1009.8 mb - 0.00 in0.0 mm 0.00 in0.0 mm
12:30 AM 19.8°F-6.8°C 13.8°F-10.1°C 77% Calm Calm -- 29.82 in1009.8 mb - 0.00 in0.0 mm 0.00 in0.0 mm
12:40 AM 19.9°F-6.7°C 13.9°F-10.1°C 77% Calm Calm -- 29.83 in1010.2 mb - 0.00 in0.0 mm 0.00 in0.0 mm
12:50 AM 19.9°F-6.7°C 13.9°F-10.1°C 77% Calm Calm 1.2 mph1.9 kmh 29.83 in1010.2 mb - 0.00 in0.0 mm 0.00 in0.0 mm
01:00 AM 19.8°F-6.8°C 13.8°F-10.1°C 77% Calm Calm -- 29.83 in1010.2 mb - 0.00 in0.0 mm 0.00 in0.0 mm
01:10 AM 19.8°F-6.8°C 13.8°F-10.1°C 77% Calm Calm 3.5 mph5.6 kmh 29.83 in1010.2 mb - 0.00 in0.0 mm 0.00 in0.0 mm
01:20 AM 19.8°F-6.8°C 13.8°F-10.1°C 77% Calm Calm -- 29.83 in1010.2 mb - 0.00 in0.0 mm 0.00 in0.0 mm
01:30 AM 19.7°F-6.8°C 13.7°F-10.2°C 77% Calm Calm -- 29.83 in1010.2 mb - 0.00 in0.0 mm 0.00 in0.0 mm
01:40 AM 19.7°F-6.8°C 14.0°F-10.0°C 78% Calm Calm -- 29.83 in1010.2 mb - 0.00 in0.0 mm 0.00 in0.0 mm
01:50 AM 19.7°F-6.8°C 14.0°F-10.0°C 78% Calm Calm -- 29.83 in1010.2 mb - 0.00 in0.0 mm 0.00 in0.0 mm
02:00 AM 19.7°F-6.8°C 14.0°F-10.0°C 78% 1.2 mph NW1.9 kmh NW 3.5 mph5.6 kmh 29.84 in1010.5 mb - 0.00 in0.0 mm 0.00 in0.0 mm
02:10 AM 19.6°F-6.9°C 13.9°F-10.1°C 78% Calm Calm -- 29.83 in1010.2 mb - 0.00 in0.0 mm 0.00 in0.0 mm
02:20 AM 19.5°F-6.9°C 13.8°F-10.1°C 78% Calm Calm -- 29.84 in1010.5 mb - 0.00 in0.0 mm 0.00 in0.0 mm
02:30 AM 19.5°F-6.9°C 13.8°F-10.1°C 78% 1.2 mph W1.9 kmh W -- 29.84 in1010.5 mb - 0.00 in0.0 mm 0.00 in0.0 mm
02:40 AM 19.5°F-6.9°C 13.8°F-10.1°C 78% Calm Calm -- 29.84 in1010.5 mb - 0.00 in0.0 mm 0.00 in0.0 mm
02:50 AM 19.5°F-6.9°C 13.8°F-10.1°C 78% Calm Calm 1.2 mph1.9 kmh 29.84 in1010.5 mb - 0.00 in0.0 mm 0.00 in0.0 mm
03:00 AM 19.6°F-6.9°C 13.9°F-10.1°C 78% 2.3 mph NNW3.7 kmh NNW 3.5 mph5.6 kmh 29.84 in1010.5 mb - 0.00 in0.0 mm 0.00 in0.0 mm
03:10 AM 19.5°F-6.9°C 14.0°F-10.0°C 79% 3.5 mph NW5.6 kmh NW 3.5 mph5.6 kmh 29.85 in1010.8 mb - 0.00 in0.0 mm 0.00 in0.0 mm
03:20 AM 19.3°F-7.1°C 13.9°F-10.1°C 79% 1.2 mph NW1.9 kmh NW 4.6 mph7.4 kmh 29.85 in1010.8 mb - 0.00 in0.0 mm 0.00 in0.0 mm
03:30 AM 19.2°F-7.1°C 14.0°F-10.0°C 80% 3.5 mph W5.6 kmh W 9.2 mph14.8 kmh 29.86 in1011.2 mb - 0.00 in0.0 mm 0.00 in0.0 mm
03:40 AM 19.0°F-7.2°C 13.8°F-10.1°C 80% 1.2 mph NW1.9 kmh NW 1.2 mph1.9 kmh 29.86 in1011.2 mb - 0.00 in0.0 mm 0.00 in0.0 mm
03:50 AM 18.9°F-7.3°C 14.0°F-10.0°C 81% 2.3 mph NW3.7 kmh NW 4.6 mph7.4 kmh 29.86 in1011.2 mb - 0.00 in0.0 mm 0.00 in0.0 mm
04:00 AM 18.7°F-7.4°C 13.8°F-10.1°C 81% 1.2 mph NW1.9 kmh NW 4.6 mph7.4 kmh 29.86 in1011.2 mb - 0.00 in0.0 mm 0.00 in0.0 mm
04:10 AM 18.6°F-7.4°C 13.7°F-10.2°C 81% 1.2 mph NW1.9 kmh NW 3.5 mph5.6 kmh 29.86 in1011.2 mb - 0.00 in0.0 mm 0.00 in0.0 mm
04:20 AM 18.5°F-7.5°C 13.6°F-10.2°C 81% 1.2 mph NW1.9 kmh NW 5.8 mph9.3 kmh 29.86 in1011.2 mb - 0.00 in0.0 mm 0.00 in0.0 mm
04:30 AM 18.3°F-7.6°C 13.4°F-10.3°C 81% 2.3 mph NW3.7 kmh NW 5.8 mph9.3 kmh 29.87 in1011.5 mb - 0.00 in0.0 mm 0.00 in0.0 mm
04:40 AM 18.2°F-7.7°C 13.1°F-10.5°C 80% 1.2 mph NNW1.9 kmh NNW 3.5 mph5.6 kmh 29.86 in1011.2 mb - 0.00 in0.0 mm 0.00 in0.0 mm
04:50 AM 18.1°F-7.7°C 13.0°F-10.6°C 80% 1.2 mph NW1.9 kmh NW 3.5 mph5.6 kmh 29.87 in1011.5 mb - 0.00 in0.0 mm 0.00 in0.0 mm
05:00 AM 18.0°F-7.8°C 13.2°F-10.4°C 81% 3.5 mph WNW5.6 kmh WNW 6.9 mph11.1 kmh 29.88 in1011.9 mb - 0.00 in0.0 mm 0.00 in0.0 mm
05:10 AM 18.0°F-7.8°C 13.1°F-10.5°C 81% 2.3 mph WNW3.7 kmh WNW 5.8 mph9.3 kmh 29.88 in1011.9 mb - 0.00 in0.0 mm 0.00 in0.0 mm
05:20 AM 17.8°F-7.9°C 12.9°F-10.6°C 81% 1.2 mph NW1.9 kmh NW 5.8 mph9.3 kmh 29.88 in1011.9 mb - 0.00 in0.0 mm 0.00 in0.0 mm
05:30 AM 17.7°F-7.9°C 13.1°F-10.5°C 82% 2.3 mph NW3.7 kmh NW 8.1 mph13.0 kmh 29.89 in1012.2 mb - 0.00 in0.0 mm 0.00 in0.0 mm
05:40 AM 17.2°F-8.2°C 12.6°F-10.8°C 82% 3.5 mph NW5.6 kmh NW 9.2 mph14.8 kmh 29.89 in1012.2 mb - 0.00 in0.0 mm 0.00 in0.0 mm
05:50 AM 16.7°F-8.5°C 11.9°F-11.2°C 81% 3.5 mph NW5.6 kmh NW 8.1 mph13.0 kmh 29.90 in1012.5 mb - 0.00 in0.0 mm 0.00 in0.0 mm
06:00 AM 16.3°F-8.7°C 11.2°F-11.6°C 80% 3.5 mph NW5.6 kmh NW 6.9 mph11.1 kmh 29.91 in1012.9 mb - 0.00 in0.0 mm 0.00 in0.0 mm
06:10 AM 16.1°F-8.8°C 11.0°F-11.7°C 80% 4.6 mph NW7.4 kmh NW 5.8 mph9.3 kmh 29.91 in1012.9 mb - 0.00 in0.0 mm 0.00 in0.0 mm
06:20 AM 15.9°F-8.9°C 10.5°F-11.9°C 79% 3.5 mph NW5.6 kmh NW 10.4 mph16.7 kmh 29.91 in1012.9 mb - 0.00 in0.0 mm 0.00 in0.0 mm
06:30 AM 15.7°F-9.1°C 10.3°F-12.1°C 79% 6.9 mph NNW11.1 kmh NNW 13.8 mph22.2 kmh 29.92 in1013.2 mb - 0.00 in0.0 mm 0.00 in0.0 mm
06:40 AM 15.7°F-9.1°C 10.0°F-12.2°C 78% 2.3 mph NW3.7 kmh NW 6.9 mph11.1 kmh 29.93 in1013.5 mb - 0.00 in0.0 mm 0.00 in0.0 mm
06:50 AM 15.5°F-9.2°C 9.9°F-12.3°C 78% 4.6 mph NW7.4 kmh NW 8.1 mph13.0 kmh 29.93 in1013.5 mb - 0.00 in0.0 mm 0.00 in0.0 mm
07:00 AM 15.4°F-9.2°C 9.5°F-12.5°C 77% 5.8 mph NNW9.3 kmh NNW 11.5 mph18.5 kmh 29.94 in1013.9 mb - 0.00 in0.0 mm 0.00 in0.0 mm
07:10 AM 15.0°F-9.4°C 8.5°F-13.1°C 75% 2.3 mph NW3.7 kmh NW 5.8 mph9.3 kmh 29.95 in1014.2 mb - 0.00 in0.0 mm 0.00 in0.0 mm
07:20 AM 14.2°F-9.9°C 8.0°F-13.3°C 76% 6.9 mph NW11.1 kmh NW 9.2 mph14.8 kmh 29.96 in1014.6 mb - 0.00 in0.0 mm 0.00 in0.0 mm
07:30 AM 13.3°F-10.4°C 7.7°F-13.5°C 78% 8.1 mph NW13.0 kmh NW 11.5 mph18.5 kmh 29.97 in1014.9 mb - 0.00 in0.0 mm 0.00 in0.0 mm
07:40 AM 12.7°F-10.7°C 6.9°F-13.9°C 77% 4.6 mph NNW7.4 kmh NNW 9.2 mph14.8 kmh 29.98 in1015.2 mb - 0.00 in0.0 mm 0.00 in0.0 mm
07:50 AM 12.6°F-10.8°C 6.8°F-14.0°C 77% 2.3 mph NNW3.7 kmh NNW 2.3 mph3.7 kmh 29.98 in1015.2 mb - 0.00 in0.0 mm 0.00 in0.0 mm
08:00 AM 12.7°F-10.7°C 6.8°F-14.0°C 77% 4.6 mph NW7.4 kmh NW 13.8 mph22.2 kmh 29.99 in1015.6 mb - 0.00 in0.0 mm 0.00 in0.0 mm
08:10 AM 12.2°F-11.0°C 7.0°F-13.9°C 79% 3.5 mph NW5.6 kmh NW 5.8 mph9.3 kmh 30.00 in1015.9 mb - 0.00 in0.0 mm 0.00 in0.0 mm
08:20 AM 11.2°F-11.6°C 5.4°F-14.8°C 77% 5.8 mph NW9.3 kmh NW 11.5 mph18.5 kmh 30.00 in1015.9 mb - 0.00 in0.0 mm 0.00 in0.0 mm
08:30 AM 10.4°F-12.0°C 4.0°F-15.6°C 75% 5.8 mph NW9.3 kmh NW 9.2 mph14.8 kmh 30.01 in1016.3 mb - 0.00 in0.0 mm 0.00 in0.0 mm
08:40 AM 9.4°F-12.6°C 2.1°F-16.6°C 72% 6.9 mph NW11.1 kmh NW 11.5 mph18.5 kmh 30.02 in1016.6 mb - 0.00 in0.0 mm 0.00 in0.0 mm
08:50 AM 8.1°F-13.3°C 0.7°F-17.4°C 71% 9.2 mph NW14.8 kmh NW 19.6 mph31.5 kmh 30.03 in1016.9 mb - 0.00 in0.0 mm 0.00 in0.0 mm
09:00 AM 7.4°F-13.7°C 0.0°F-17.8°C 71% 4.6 mph NW7.4 kmh NW 11.5 mph18.5 kmh 30.04 in1017.3 mb - 0.00 in0.0 mm 0.00 in0.0 mm
09:10 AM 6.5°F-14.2°C -1.2°F-18.4°C 70% 8.1 mph N13.0 kmh N 10.4 mph16.7 kmh 30.04 in1017.3 mb - 0.00 in0.0 mm 0.00 in0.0 mm
09:20 AM 5.6°F-14.7°C -2.0°F-18.9°C 70% 3.5 mph NW5.6 kmh NW 10.4 mph16.7 kmh 30.05 in1017.6 mb - 0.00 in0.0 mm 0.00 in0.0 mm
09:30 AM 5.5°F-14.7°C -1.9°F-18.8°C 71% 5.8 mph NW9.3 kmh NW 11.5 mph18.5 kmh 30.06 in1017.9 mb - 0.00 in0.0 mm 0.00 in0.0 mm
09:40 AM 5.1°F-14.9°C -1.7°F-18.7°C 73% 3.5 mph NW5.6 kmh NW 3.5 mph5.6 kmh 30.08 in1018.6 mb - 0.00 in0.0 mm 0.00 in0.0 mm
09:50 AM 4.0°F-15.6°C -3.6°F-19.8°C 70% 4.6 mph NW7.4 kmh NW 12.7 mph20.4 kmh 30.09 in1019.0 mb - 0.00 in0.0 mm 0.00 in0.0 mm
10:00 AM 3.4°F-15.9°C -4.5°F-20.3°C 69% 3.5 mph NW5.6 kmh NW 6.9 mph11.1 kmh 30.10 in1019.3 mb - 0.00 in0.0 mm 0.00 in0.0 mm
10:10 AM 3.3°F-15.9°C -4.9°F-20.5°C 68% 4.6 mph NNW7.4 kmh NNW 5.8 mph9.3 kmh 30.10 in1019.3 mb - 0.00 in0.0 mm 0.00 in0.0 mm
10:20 AM 2.7°F-16.3°C -5.8°F-21.0°C 67% 9.2 mph NNW14.8 kmh NNW 13.8 mph22.2 kmh 30.11 in1019.6 mb - 0.00 in0.0 mm 0.00 in0.0 mm
10:30 AM 2.8°F-16.2°C -6.0°F-21.1°C 66% 5.8 mph NW9.3 kmh NW 10.4 mph16.7 kmh 30.11 in1019.6 mb - 0.00 in0.0 mm 0.00 in0.0 mm
10:40 AM 2.2°F-16.6°C -6.6°F-21.4°C 66% 5.8 mph NW9.3 kmh NW 15.0 mph24.1 kmh 30.12 in1020.0 mb - 0.00 in0.0 mm 0.00 in0.0 mm
10:50 AM 1.9°F-16.7°C -6.9°F-21.6°C 66% 6.9 mph NNW11.1 kmh NNW 15.0 mph24.1 kmh 30.13 in1020.3 mb - 0.00 in0.0 mm 0.00 in0.0 mm
11:00 AM 2.0°F-16.7°C -6.8°F-21.6°C 66% 2.3 mph NW3.7 kmh NW 9.2 mph14.8 kmh 30.13 in1020.3 mb - 0.00 in0.0 mm 0.00 in0.0 mm
11:10 AM 1.9°F-16.7°C -7.5°F-21.9°C 64% 6.9 mph NW11.1 kmh NW 15.0 mph24.1 kmh 30.13 in1020.3 mb - 0.00 in0.0 mm 0.00 in0.0 mm
11:20 AM 2.0°F-16.7°C -7.4°F-21.9°C 64% 4.6 mph NNW7.4 kmh NNW 11.5 mph18.5 kmh 30.13 in1020.3 mb - 0.00 in0.0 mm 0.00 in0.0 mm
11:30 AM 2.4°F-16.4°C -6.7°F-21.5°C 65% 5.8 mph NNW9.3 kmh NNW 12.7 mph20.4 kmh 30.13 in1020.3 mb - 0.00 in0.0 mm 0.00 in0.0 mm
11:40 AM 2.5°F-16.4°C -6.9°F-21.6°C 64% 2.3 mph NW3.7 kmh NW 12.7 mph20.4 kmh 30.14 in1020.7 mb - 0.00 in0.0 mm 0.00 in0.0 mm
11:50 AM 2.7°F-16.3°C -7.1°F-21.7°C 63% 5.8 mph N9.3 kmh N 9.2 mph14.8 kmh 30.15 in1021.0 mb - 0.00 in0.0 mm 0.00 in0.0 mm
12:00 PM 3.4°F-15.9°C -6.4°F-21.3°C 63% 5.8 mph NW9.3 kmh NW 13.8 mph22.2 kmh 30.15 in1021.0 mb - 0.00 in0.0 mm 0.00 in0.0 mm
12:10 PM 3.5°F-15.8°C -6.3°F-21.3°C 63% 3.5 mph NW5.6 kmh NW 11.5 mph18.5 kmh 30.15 in1021.0 mb - 0.00 in0.0 mm 0.00 in0.0 mm
12:20 PM 3.3°F-15.9°C -6.8°F-21.6°C 62% 8.1 mph NNW13.0 kmh NNW 18.4 mph29.6 kmh 30.15 in1021.0 mb - 0.00 in0.0 mm 0.00 in0.0 mm
12:30 PM 3.3°F-15.9°C -6.5°F-21.4°C 63% 6.9 mph N11.1 kmh N 10.4 mph16.7 kmh 30.15 in1021.0 mb - 0.00 in0.0 mm 0.00 in0.0 mm
12:40 PM 3.9°F-15.6°C -6.2°F-21.2°C 62% 9.2 mph NW14.8 kmh NW 11.5 mph18.5 kmh 30.15 in1021.0 mb - 0.00 in0.0 mm 0.00 in0.0 mm
12:50 PM 4.2°F-15.4°C -6.3°F-21.3°C 61% 3.5 mph NW5.6 kmh NW 11.5 mph18.5 kmh 30.14 in1020.7 mb - 0.00 in0.0 mm 0.00 in0.0 mm
01:00 PM 4.9°F-15.1°C -5.7°F-20.9°C 61% 5.8 mph NNW9.3 kmh NNW 15.0 mph24.1 kmh 30.15 in1021.0 mb - 0.00 in0.0 mm 0.00 in0.0 mm
01:10 PM 5.0°F-15.0°C -5.5°F-20.8°C 61% 4.6 mph NNW7.4 kmh NNW 9.2 mph14.8 kmh 30.15 in1021.0 mb - 0.00 in0.0 mm 0.00 in0.0 mm
01:20 PM 5.3°F-14.8°C -5.9°F-21.1°C 59% 5.8 mph NNW9.3 kmh NNW 10.4 mph16.7 kmh 30.15 in1021.0 mb - 0.00 in0.0 mm 0.00 in0.0 mm
01:30 PM 5.5°F-14.7°C -5.7°F-20.9°C 59% 2.3 mph NW3.7 kmh NW 4.6 mph7.4 kmh 30.15 in1021.0 mb - 0.00 in0.0 mm 0.00 in0.0 mm
01:40 PM 5.5°F-14.7°C -6.5°F-21.4°C 57% 3.5 mph NW5.6 kmh NW 8.1 mph13.0 kmh 30.15 in1021.0 mb - 0.00 in0.0 mm 0.00 in0.0 mm
01:50 PM 5.7°F-14.6°C -5.9°F-21.1°C 58% 2.3 mph NW3.7 kmh NW 6.9 mph11.1 kmh 30.15 in1021.0 mb - 0.00 in0.0 mm 0.00 in0.0 mm
02:00 PM 5.4°F-14.8°C -6.2°F-21.2°C 58% 5.8 mph NW9.3 kmh NW 8.1 mph13.0 kmh 30.15 in1021.0 mb - 0.00 in0.0 mm 0.00 in0.0 mm
02:10 PM 5.2°F-14.9°C -6.8°F-21.6°C 57% 4.6 mph WNW7.4 kmh WNW 11.5 mph18.5 kmh 30.16 in1021.3 mb - 0.00 in0.0 mm 0.00 in0.0 mm
02:20 PM 5.0°F-15.0°C -7.3°F-21.8°C 56% 6.9 mph NW11.1 kmh NW 11.5 mph18.5 kmh 30.15 in1021.0 mb - 0.00 in0.0 mm 0.00 in0.0 mm
02:30 PM 4.6°F-15.2°C -7.7°F-22.1°C 56% 8.1 mph NW13.0 kmh NW 12.7 mph20.4 kmh 30.15 in1021.0 mb - 0.00 in0.0 mm 0.00 in0.0 mm
02:40 PM 4.8°F-15.1°C -7.5°F-21.9°C 56% 5.8 mph NW9.3 kmh NW 12.7 mph20.4 kmh 30.15 in1021.0 mb - 0.00 in0.0 mm 0.00 in0.0 mm
02:50 PM 4.8°F-15.1°C -7.8°F-22.1°C 55% 4.6 mph NW7.4 kmh NW 11.5 mph18.5 kmh 30.15 in1021.0 mb - 0.00 in0.0 mm 0.00 in0.0 mm
03:00 PM 4.8°F-15.1°C -8.2°F-22.3°C 54% 5.8 mph NW9.3 kmh NW 12.7 mph20.4 kmh 30.16 in1021.3 mb - 0.00 in0.0 mm 0.00 in0.0 mm
03:10 PM 4.9°F-15.1°C -8.1°F-22.3°C 54% 4.6 mph WNW7.4 kmh WNW 6.9 mph11.1 kmh 30.16 in1021.3 mb - 0.00 in0.0 mm 0.00 in0.0 mm
03:20 PM 4.9°F-15.1°C -8.9°F-22.7°C 52% 3.5 mph WNW5.6 kmh WNW 6.9 mph11.1 kmh 30.16 in1021.3 mb - 0.00 in0.0 mm 0.00 in0.0 mm
03:30 PM 4.8°F-15.1°C -9.8°F-23.2°C 50% 6.9 mph NW11.1 kmh NW 12.7 mph20.4 kmh 30.16 in1021.3 mb - 0.00 in0.0 mm 0.00 in0.0 mm
03:40 PM 4.7°F-15.2°C -9.9°F-23.3°C 50% 5.8 mph NW9.3 kmh NW 11.5 mph18.5 kmh 30.17 in1021.7 mb - 0.00 in0.0 mm 0.00 in0.0 mm
03:50 PM 4.3°F-15.4°C -9.9°F-23.3°C 51% 3.5 mph NNW5.6 kmh NNW 6.9 mph11.1 kmh 30.17 in1021.7 mb - 0.00 in0.0 mm 0.00 in0.0 mm
04:00 PM 4.0°F-15.6°C -10.1°F-23.4°C 51% 5.8 mph NW9.3 kmh NW 13.8 mph22.2 kmh 30.17 in1021.7 mb - 0.00 in0.0 mm 0.00 in0.0 mm
04:10 PM 3.7°F-15.7°C -10.0°F-23.3°C 52% 4.6 mph NNW7.4 kmh NNW 6.9 mph11.1 kmh 30.17 in1021.7 mb - 0.00 in0.0 mm 0.00 in0.0 mm
04:20 PM 3.7°F-15.7°C -10.4°F-23.6°C 51% 4.6 mph NW7.4 kmh NW 13.8 mph22.2 kmh 30.18 in1022.0 mb - 0.00 in0.0 mm 0.00 in0.0 mm
04:30 PM 3.2°F-16.0°C -10.5°F-23.6°C 52% 4.6 mph NNW7.4 kmh NNW 4.6 mph7.4 kmh 30.18 in1022.0 mb - 0.00 in0.0 mm 0.00 in0.0 mm
04:40 PM 2.8°F-16.2°C -10.9°F-23.8°C 52% 6.9 mph W11.1 kmh W 11.5 mph18.5 kmh 30.18 in1022.0 mb - 0.00 in0.0 mm 0.00 in0.0 mm
04:50 PM 2.4°F-16.4°C -10.9°F-23.8°C 53% 5.8 mph NNW9.3 kmh NNW 12.7 mph20.4 kmh 30.18 in1022.0 mb - 0.00 in0.0 mm 0.00 in0.0 mm
05:00 PM 2.2°F-16.6°C -11.0°F-23.9°C 53% 4.6 mph NW7.4 kmh NW 11.5 mph18.5 kmh 30.19 in1022.4 mb - 0.00 in0.0 mm 0.00 in0.0 mm
05:10 PM 1.8°F-16.8°C -11.4°F-24.1°C 53% 4.6 mph NW7.4 kmh NW 11.5 mph18.5 kmh 30.19 in1022.4 mb - 0.00 in0.0 mm 0.00 in0.0 mm
05:20 PM 1.6°F-16.9°C -11.6°F-24.2°C 53% 5.8 mph NW9.3 kmh NW 10.4 mph16.7 kmh 30.20 in1022.7 mb - 0.00 in0.0 mm 0.00 in0.0 mm
05:30 PM 1.4°F-17.0°C -11.4°F-24.1°C 54% 4.6 mph NW7.4 kmh NW 5.8 mph9.3 kmh 30.20 in1022.7 mb - 0.00 in0.0 mm 0.00 in0.0 mm
05:40 PM 1.1°F-17.2°C -12.1°F-24.5°C 53% 1.2 mph NW1.9 kmh NW 3.5 mph5.6 kmh 30.21 in1023.0 mb - 0.00 in0.0 mm 0.00 in0.0 mm
05:50 PM 0.8°F-17.3°C -12.0°F-24.4°C 54% 5.8 mph NNW9.3 kmh NNW 17.3 mph27.8 kmh 30.21 in1023.0 mb - 0.00 in0.0 mm 0.00 in0.0 mm
06:00 PM 0.2°F-17.7°C -12.5°F-24.7°C 54% 5.8 mph NW9.3 kmh NW 15.0 mph24.1 kmh 30.22 in1023.4 mb - 0.00 in0.0 mm 0.00 in0.0 mm
06:10 PM -0.2°F-17.9°C -12.9°F-24.9°C 54% 2.3 mph NW3.7 kmh NW 10.4 mph16.7 kmh 30.22 in1023.4 mb - 0.00 in0.0 mm 0.00 in0.0 mm
06:20 PM -0.6°F-18.1°C -12.9°F-24.9°C 55% 4.6 mph NW7.4 kmh NW 12.7 mph20.4 kmh 30.23 in1023.7 mb - 0.00 in0.0 mm 0.00 in0.0 mm
06:30 PM -0.8°F-18.2°C -12.8°F-24.9°C 56% 2.3 mph NW3.7 kmh NW 10.4 mph16.7 kmh 30.23 in1023.7 mb - 0.00 in0.0 mm 0.00 in0.0 mm
06:40 PM -1.1°F-18.4°C -13.4°F-25.2°C 55% 3.5 mph WNW5.6 kmh WNW 8.1 mph13.0 kmh 30.24 in1024.0 mb - 0.00 in0.0 mm 0.00 in0.0 mm
06:50 PM -1.4°F-18.6°C -13.3°F-25.2°C 56% 4.6 mph NW7.4 kmh NW 9.2 mph14.8 kmh 30.24 in1024.0 mb - 0.00 in0.0 mm 0.00 in0.0 mm
07:00 PM -1.8°F-18.8°C -13.3°F-25.2°C 57% 2.3 mph NW3.7 kmh NW 4.6 mph7.4 kmh 30.25 in1024.4 mb - 0.00 in0.0 mm 0.00 in0.0 mm
07:10 PM -2.1°F-18.9°C -14.0°F-25.6°C 56% 3.5 mph NW5.6 kmh NW 11.5 mph18.5 kmh 30.25 in1024.4 mb - 0.00 in0.0 mm 0.00 in0.0 mm
07:20 PM -2.4°F-19.1°C -14.3°F-25.7°C 56% 2.3 mph NW3.7 kmh NW 6.9 mph11.1 kmh 30.25 in1024.4 mb - 0.00 in0.0 mm 0.00 in0.0 mm
07:30 PM -2.6°F-19.2°C -14.5°F-25.8°C 56% 4.6 mph NW7.4 kmh NW 10.4 mph16.7 kmh 30.25 in1024.4 mb - 0.00 in0.0 mm 0.00 in0.0 mm
07:40 PM -2.9°F-19.4°C -14.7°F-25.9°C 56% 3.5 mph NW5.6 kmh NW 6.9 mph11.1 kmh 30.26 in1024.7 mb - 0.00 in0.0 mm 0.00 in0.0 mm
07:50 PM -3.1°F-19.5°C -14.9°F-26.1°C 56% 1.2 mph NW1.9 kmh NW 3.5 mph5.6 kmh 30.26 in1024.7 mb - 0.00 in0.0 mm 0.00 in0.0 mm
08:00 PM -3.3°F-19.6°C -15.1°F-26.2°C 56% 5.8 mph NW9.3 kmh NW 11.5 mph18.5 kmh 30.27 in1025.1 mb - 0.00 in0.0 mm 0.00 in0.0 mm
08:10 PM -3.5°F-19.7°C -15.3°F-26.3°C 56% 3.5 mph NW5.6 kmh NW 4.6 mph7.4 kmh 30.27 in1025.1 mb - 0.00 in0.0 mm 0.00 in0.0 mm
08:20 PM -3.6°F-19.8°C -15.0°F-26.1°C 57% 1.2 mph NW1.9 kmh NW 4.6 mph7.4 kmh 30.27 in1025.1 mb - 0.00 in0.0 mm 0.00 in0.0 mm
08:30 PM -3.7°F-19.8°C -15.2°F-26.2°C 57% 2.3 mph WNW3.7 kmh WNW 3.5 mph5.6 kmh 30.27 in1025.1 mb - 0.00 in0.0 mm 0.00 in0.0 mm
08:40 PM -3.9°F-19.9°C -15.3°F-26.3°C 57% 3.5 mph NW5.6 kmh NW 8.1 mph13.0 kmh 30.27 in1025.1 mb - 0.00 in0.0 mm 0.00 in0.0 mm
08:50 PM -4.1°F-20.1°C -15.5°F-26.4°C 57% 3.5 mph NNW5.6 kmh NNW 3.5 mph5.6 kmh 30.28 in1025.4 mb - 0.00 in0.0 mm 0.00 in0.0 mm
09:00 PM -4.2°F-20.1°C -15.6°F-26.4°C 57% 2.3 mph NW3.7 kmh NW 3.5 mph5.6 kmh 30.28 in1025.4 mb - 0.00 in0.0 mm 0.00 in0.0 mm
09:10 PM -4.3°F-20.2°C -15.7°F-26.5°C 57% 4.6 mph NNW7.4 kmh NNW 6.9 mph11.1 kmh 30.28 in1025.4 mb - 0.00 in0.0 mm 0.00 in0.0 mm
09:20 PM -4.5°F-20.3°C -16.2°F-26.8°C 56% 2.3 mph NW3.7 kmh NW 8.1 mph13.0 kmh 30.28 in1025.4 mb - 0.00 in0.0 mm 0.00 in0.0 mm
09:30 PM -4.7°F-20.4°C -16.1°F-26.7°C 57% 3.5 mph NW5.6 kmh NW 8.1 mph13.0 kmh 30.28 in1025.4 mb - 0.00 in0.0 mm 0.00 in0.0 mm
09:40 PM -5.0°F-20.6°C -16.4°F-26.9°C 57% 1.2 mph W1.9 kmh W 8.1 mph13.0 kmh 30.28 in1025.4 mb - 0.00 in0.0 mm 0.00 in0.0 mm
09:50 PM -5.2°F-20.7°C -16.6°F-27.0°C 57% 4.6 mph NW7.4 kmh NW 11.5 mph18.5 kmh 30.28 in1025.4 mb - 0.00 in0.0 mm 0.00 in0.0 mm
10:00 PM -5.4°F-20.8°C -16.4°F-26.9°C 58% Calm Calm 3.5 mph5.6 kmh 30.28 in1025.4 mb - 0.00 in0.0 mm 0.00 in0.0 mm
10:10 PM -5.6°F-20.9°C -16.3°F-26.8°C 59% 3.5 mph WNW5.6 kmh WNW 5.8 mph9.3 kmh 30.28 in1025.4 mb - 0.00 in0.0 mm 0.00 in0.0 mm
10:20 PM -5.8°F-21.0°C -16.4°F-26.9°C 59% 1.2 mph NW1.9 kmh NW 3.5 mph5.6 kmh 30.28 in1025.4 mb - 0.00 in0.0 mm 0.00 in0.0 mm
10:30 PM -5.9°F-21.1°C -16.5°F-26.9°C 59% 1.2 mph N1.9 kmh N 2.3 mph3.7 kmh 30.28 in1025.4 mb - 0.00 in0.0 mm 0.00 in0.0 mm
10:40 PM -6.2°F-21.2°C -16.8°F-27.1°C 59% 3.5 mph NNW5.6 kmh NNW 5.8 mph9.3 kmh 30.27 in1025.1 mb - 0.00 in0.0 mm 0.00 in0.0 mm
10:50 PM -6.5°F-21.4°C -17.1°F-27.3°C 59% 1.2 mph NW1.9 kmh NW 2.3 mph3.7 kmh 30.27 in1025.1 mb - 0.00 in0.0 mm 0.00 in0.0 mm
11:00 PM -6.7°F-21.5°C -17.0°F-27.2°C 60% 1.2 mph NW1.9 kmh NW 2.3 mph3.7 kmh 30.28 in1025.4 mb - 0.00 in0.0 mm 0.00 in0.0 mm
11:10 PM -6.8°F-21.6°C -16.7°F-27.1°C 61% Calm Calm -- 30.28 in1025.4 mb - 0.00 in0.0 mm 0.00 in0.0 mm
11:20 PM -7.0°F-21.7°C -16.6°F-27.0°C 62% 1.2 mph WSW1.9 kmh WSW 2.3 mph3.7 kmh 30.28 in1025.4 mb - 0.00 in0.0 mm 0.00 in0.0 mm
11:30 PM -7.1°F-21.7°C -16.7°F-27.1°C 62% 2.3 mph NW3.7 kmh NW 3.5 mph5.6 kmh 30.28 in1025.4 mb - 0.00 in0.0 mm 0.00 in0.0 mm
11:40 PM -7.2°F-21.8°C -16.8°F-27.1°C 62% 2.3 mph WNW3.7 kmh WNW 3.5 mph5.6 kmh 30.28 in1025.4 mb - 0.00 in0.0 mm 0.00 in0.0 mm
11:50 PM -7.4°F-21.9°C -17.0°F-27.2°C 62% 1.2 mph WNW1.9 kmh WNW 4.6 mph7.4 kmh 30.28 in1025.4 mb - 0.00 in0.0 mm 0.00 in0.0 mm